createdAt,value
2018-03-06T00:00:52.070Z,12.18
2018-03-06T00:03:20.385Z,10.65
2018-03-06T00:05:48.738Z,12.10
2018-03-06T00:08:17.057Z,12.10
2018-03-06T00:10:45.401Z,11.98
2018-03-06T00:13:13.718Z,12.45
2018-03-06T00:15:42.058Z,12.30
2018-03-06T00:18:10.374Z,12.82
2018-03-06T00:20:38.722Z,12.70
2018-03-06T00:23:07.046Z,13.70
2018-03-06T00:25:35.388Z,12.32
2018-03-06T00:28:03.701Z,13.52
2018-03-06T00:30:32.046Z,11.77
2018-03-06T00:33:00.377Z,10.90
2018-03-06T00:35:28.701Z,12.85
2018-03-06T00:37:57.022Z,12.65
2018-03-06T00:40:25.346Z,12.55
2018-03-06T00:42:53.686Z,12.95
2018-03-06T00:45:22.010Z,13.23
2018-03-06T00:47:50.346Z,12.77
2018-03-06T00:50:18.670Z,13.55
2018-03-06T00:52:47.019Z,11.98
2018-03-06T00:55:15.334Z,12.52
2018-03-06T00:57:43.679Z,12.82
2018-03-06T01:00:11.990Z,13.50
2018-03-06T01:02:40.330Z,13.15
2018-03-06T01:05:08.648Z,14.68
2018-03-06T01:07:36.986Z,15.40
2018-03-06T01:10:05.322Z,14.45
2018-03-06T01:12:33.661Z,14.18
2018-03-06T01:15:01.982Z,13.48
2018-03-06T01:17:30.318Z,14.60
2018-03-06T01:19:58.642Z,14.02
2018-03-06T01:22:26.982Z,13.95
2018-03-06T01:24:55.303Z,13.68
2018-03-06T01:27:23.646Z,13.40
2018-03-06T01:29:51.991Z,11.32
2018-03-06T01:32:20.310Z,13.48
2018-03-06T01:34:48.649Z,12.70
2018-03-06T01:37:16.970Z,12.18
2018-03-06T01:39:45.315Z,13.60
2018-03-06T01:42:13.629Z,13.10
2018-03-06T01:44:41.967Z,13.02
2018-03-06T01:47:10.323Z,14.10
2018-03-06T01:49:38.666Z,13.45
2018-03-06T01:52:06.990Z,13.27
2018-03-06T01:54:35.331Z,13.30
2018-03-06T01:57:03.650Z,13.23
2018-03-06T01:59:31.991Z,13.32
2018-03-06T02:02:00.311Z,12.55
2018-03-06T02:04:28.654Z,13.23
2018-03-06T02:06:56.980Z,13.88
2018-03-06T02:09:25.325Z,13.95
2018-03-06T02:11:53.630Z,13.32
2018-03-06T02:14:21.974Z,12.63
2018-03-06T02:16:50.294Z,14.93
2018-03-06T02:19:18.642Z,13.68
2018-03-06T02:21:46.969Z,14.38
2018-03-06T02:24:15.301Z,12.95
2018-03-06T02:26:43.634Z,13.05
2018-03-06T02:29:11.954Z,12.95
2018-03-06T02:31:40.293Z,13.02
2018-03-06T02:34:08.616Z,13.82
2018-03-06T02:36:36.953Z,12.77
2018-03-06T02:39:05.273Z,12.90
2018-03-06T02:41:33.615Z,11.30
2018-03-06T02:44:01.935Z,12.30
2018-03-06T02:46:30.274Z,13.18
2018-03-06T02:48:58.590Z,12.40
2018-03-06T02:51:26.929Z,13.25
2018-03-06T02:53:55.246Z,12.88
2018-03-06T02:56:23.583Z,13.32
2018-03-06T02:58:51.907Z,13.55
2018-03-06T03:01:20.259Z,12.98
2018-03-06T03:03:48.573Z,12.70
2018-03-06T03:06:16.910Z,13.30
2018-03-06T03:08:45.234Z,16.02
2018-03-06T03:11:13.574Z,15.13
2018-03-06T03:13:41.890Z,15.70
2018-03-06T03:16:10.225Z,13.95
2018-03-06T03:18:38.550Z,13.68
2018-03-06T03:21:06.895Z,13.62
2018-03-06T03:23:35.224Z,13.05
2018-03-06T03:26:03.570Z,12.85
2018-03-06T03:28:31.880Z,12.32
2018-03-06T03:31:00.203Z,12.88
2018-03-06T03:33:28.546Z,11.10
2018-03-06T03:35:56.870Z,13.18
2018-03-06T03:38:25.209Z,12.98
2018-03-06T03:40:53.535Z,12.40
2018-03-06T03:43:21.874Z,13.93
2018-03-06T03:45:50.186Z,12.20
2018-03-06T03:48:18.534Z,13.27
2018-03-06T03:50:46.874Z,14.07
2018-03-06T03:53:15.214Z,14.60
2018-03-06T03:55:43.529Z,14.65
2018-03-06T03:58:11.874Z,17.15
2018-03-06T04:00:40.197Z,16.58
2018-03-06T04:03:08.530Z,16.87
2018-03-06T04:05:36.845Z,17.25
2018-03-06T04:08:05.189Z,16.52
2018-03-06T04:10:33.501Z,16.23
2018-03-06T04:13:01.850Z,15.88
2018-03-06T04:15:30.171Z,16.48
2018-03-06T04:17:58.490Z,17.12
2018-03-06T04:20:26.827Z,16.15
2018-03-06T04:22:55.142Z,16.58
2018-03-06T04:25:23.478Z,18.05
2018-03-06T04:27:51.798Z,17.30
2018-03-06T04:30:20.146Z,19.35
2018-03-06T04:32:48.466Z,20.30
2018-03-06T04:35:16.801Z,18.00
2018-03-06T04:37:45.130Z,17.87
2018-03-06T04:40:13.473Z,16.75
2018-03-06T04:42:41.793Z,16.60
2018-03-06T04:45:10.130Z,16.98
2018-03-06T04:47:38.454Z,15.93
2018-03-06T04:50:06.785Z,17.08
2018-03-06T04:52:35.106Z,16.58
2018-03-06T04:55:03.445Z,15.90
2018-03-06T04:57:31.786Z,16.77
2018-03-06T05:00:00.107Z,16.90
2018-03-06T05:02:28.446Z,15.23
2018-03-06T05:04:56.768Z,16.62
2018-03-06T05:07:25.122Z,18.58
2018-03-06T05:09:53.446Z,18.73
2018-03-06T05:12:21.782Z,19.98
2018-03-06T05:14:50.102Z,18.35
2018-03-06T05:17:18.441Z,20.25
2018-03-06T05:19:46.757Z,20.27
2018-03-06T05:22:15.098Z,21.15
2018-03-06T05:24:43.413Z,19.87
2018-03-06T05:27:11.762Z,19.45
2018-03-06T05:29:40.082Z,19.83
2018-03-06T05:32:08.432Z,18.85
2018-03-06T05:34:36.750Z,19.98
2018-03-06T05:37:11.185Z,20.30
2018-03-06T05:39:40.458Z,19.62
2018-03-06T05:42:08.777Z,20.53
2018-03-06T05:44:37.121Z,19.03
2018-03-06T05:47:05.447Z,20.50
2018-03-06T05:49:33.785Z,20.20
2018-03-06T05:52:02.107Z,18.80
2018-03-06T05:54:30.455Z,18.47
2018-03-06T05:56:59.083Z,18.23
2018-03-06T05:59:27.422Z,19.77
2018-03-06T06:01:55.746Z,17.58
2018-03-06T06:04:24.098Z,18.63
2018-03-06T06:06:52.420Z,23.80
2018-03-06T06:09:20.762Z,19.23
2018-03-06T06:11:49.083Z,18.33
2018-03-06T06:14:17.430Z,19.20
2018-03-06T06:16:45.753Z,17.52
2018-03-06T06:19:14.104Z,18.13
2018-03-06T06:21:43.445Z,19.52
2018-03-06T06:24:11.794Z,18.27
2018-03-06T06:26:40.113Z,20.83
2018-03-06T06:29:08.624Z,17.42
2018-03-06T06:31:37.181Z,18.50
2018-03-06T06:34:05.499Z,19.30
2018-03-06T06:36:33.843Z,17.60
2018-03-06T06:39:02.170Z,19.87
2018-03-06T06:41:30.512Z,20.33
2018-03-06T06:43:58.833Z,23.60
2018-03-06T06:46:27.173Z,28.80
2018-03-06T06:48:55.498Z,23.50
2018-03-06T06:51:23.841Z,27.60
2018-03-06T06:53:52.162Z,26.37
2018-03-06T06:56:20.501Z,28.23
2018-03-06T06:58:48.817Z,27.87
2018-03-06T07:01:17.153Z,34.50
2018-03-06T07:03:45.474Z,28.40
2018-03-06T07:06:13.819Z,26.33
2018-03-06T07:08:42.143Z,24.25
2018-03-06T07:11:10.484Z,24.87
2018-03-06T07:13:38.810Z,25.40
2018-03-06T07:16:07.154Z,25.40
2018-03-06T07:18:35.475Z,23.50
2018-03-06T07:21:03.834Z,21.90
2018-03-06T07:23:32.163Z,23.40
2018-03-06T07:26:01.479Z,22.87
2018-03-06T07:28:29.817Z,25.58
2018-03-06T07:30:58.142Z,24.27
2018-03-06T07:33:26.486Z,24.77
2018-03-06T07:35:54.805Z,25.85
2018-03-06T07:38:23.145Z,27.17
2018-03-06T07:40:51.465Z,24.67
2018-03-06T07:43:19.805Z,27.77
2018-03-06T07:45:48.129Z,27.97
2018-03-06T07:48:16.542Z,26.52
2018-03-06T07:50:44.861Z,28.85
2018-03-06T07:53:13.210Z,29.67
2018-03-06T07:55:41.530Z,32.07
2018-03-06T07:58:09.875Z,33.50
2018-03-06T08:00:38.248Z,30.33
2018-03-06T08:03:06.538Z,32.37
2018-03-06T08:05:34.862Z,31.70
2018-03-06T08:08:03.214Z,34.67
2018-03-06T08:10:31.539Z,32.88
2018-03-06T08:12:59.861Z,35.23
2018-03-06T08:15:28.198Z,36.07
2018-03-06T08:17:56.526Z,37.30
2018-03-06T08:20:24.876Z,37.43
2018-03-06T08:22:53.205Z,37.25
2018-03-06T08:25:21.542Z,39.07
2018-03-06T08:27:49.861Z,37.70
2018-03-06T08:30:18.254Z,39.13
2018-03-06T08:32:46.530Z,37.87
2018-03-06T08:35:14.870Z,37.30
2018-03-06T08:37:43.252Z,37.20
2018-03-06T08:40:11.540Z,35.07
2018-03-06T08:42:39.865Z,34.63
2018-03-06T08:45:08.202Z,37.67
2018-03-06T08:47:36.526Z,35.40
2018-03-06T08:50:04.870Z,33.73
2018-03-06T08:52:33.195Z,32.70
2018-03-06T08:55:01.534Z,35.08
2018-03-06T08:57:29.858Z,34.40
2018-03-06T08:59:58.206Z,38.10
2018-03-06T09:02:26.538Z,38.17
2018-03-06T09:04:54.858Z,41.53
2018-03-06T09:07:23.215Z,40.10
2018-03-06T09:09:51.533Z,38.30
2018-03-06T09:12:19.885Z,38.33
2018-03-06T09:14:48.211Z,38.47
2018-03-06T09:17:16.550Z,41.40
2018-03-06T09:19:44.890Z,42.25
2018-03-06T09:22:13.246Z,44.90
2018-03-06T09:24:41.571Z,43.47
2018-03-06T09:27:09.926Z,45.70
2018-03-06T09:29:38.258Z,45.53
2018-03-06T09:32:06.606Z,48.90
2018-03-06T09:34:34.930Z,47.23
2018-03-06T09:37:03.291Z,46.70
2018-03-06T09:39:31.618Z,46.37
2018-03-06T09:41:59.950Z,50.30
2018-03-06T09:44:28.298Z,48.10
2018-03-06T09:46:56.622Z,50.42
2018-03-06T09:49:24.982Z,50.90
2018-03-06T09:51:53.300Z,48.97
2018-03-06T09:54:21.658Z,50.53
2018-03-06T09:56:49.979Z,48.77
2018-03-06T09:59:18.326Z,49.50
2018-03-06T10:01:46.662Z,51.00
2018-03-06T10:04:15.014Z,50.78
2018-03-06T10:06:43.371Z,47.40
2018-03-06T10:09:11.747Z,49.20
2018-03-06T10:11:40.103Z,49.90
2018-03-06T10:14:08.478Z,54.50
2018-03-06T10:16:36.830Z,53.33
2018-03-06T10:19:05.227Z,49.30
2018-03-06T10:21:33.583Z,47.40
2018-03-06T10:24:01.966Z,51.30
2018-03-06T10:26:30.386Z,51.65
2018-03-06T10:28:58.735Z,51.50
2018-03-06T10:31:27.116Z,49.10
2018-03-06T10:33:55.468Z,49.33
2018-03-06T10:36:23.844Z,49.37
2018-03-06T10:38:52.203Z,52.37
2018-03-06T10:41:20.576Z,53.90
2018-03-06T10:43:48.936Z,54.50
2018-03-06T10:46:17.315Z,49.60
2018-03-06T10:48:45.668Z,51.90
2018-03-06T10:51:14.044Z,51.40
2018-03-06T10:53:42.403Z,53.23
2018-03-06T10:56:10.784Z,50.08
2018-03-06T10:58:39.132Z,51.97
2018-03-06T11:01:07.515Z,52.22
2018-03-06T11:03:35.865Z,54.00
2018-03-06T11:06:04.202Z,54.53
2018-03-06T11:08:32.530Z,53.90
2018-03-06T11:11:00.859Z,53.17
2018-03-06T11:13:29.206Z,54.00
2018-03-06T11:15:57.532Z,54.83
2018-03-06T11:18:25.912Z,55.07
2018-03-06T11:20:54.210Z,55.27
2018-03-06T11:23:22.554Z,54.42
2018-03-06T11:25:50.886Z,55.23
2018-03-06T11:28:19.238Z,52.00
2018-03-06T11:30:47.567Z,54.87
2018-03-06T11:33:15.914Z,55.47
2018-03-06T11:35:44.246Z,53.40
2018-03-06T11:38:12.598Z,54.07
2018-03-06T11:40:40.926Z,57.72
2018-03-06T11:43:09.278Z,59.08
2018-03-06T11:45:37.612Z,53.90
2018-03-06T11:48:05.962Z,53.60
2018-03-06T11:50:34.534Z,54.57
2018-03-06T11:53:02.886Z,54.60
2018-03-06T11:55:31.214Z,52.70
2018-03-06T11:57:59.570Z,52.83
2018-03-06T12:00:27.898Z,58.93
2018-03-06T12:02:56.229Z,59.60
2018-03-06T12:05:24.586Z,57.37
2018-03-06T12:07:52.906Z,59.93
2018-03-06T12:10:21.357Z,56.50
2018-03-06T12:12:49.690Z,56.50
2018-03-06T12:15:18.041Z,55.70
2018-03-06T12:17:46.377Z,55.80
2018-03-06T12:20:14.722Z,50.17
2018-03-06T12:22:43.046Z,55.63
2018-03-06T12:25:11.404Z,58.13
2018-03-06T12:27:39.726Z,55.67
2018-03-06T12:30:09.103Z,58.66
2018-03-06T12:32:37.439Z,54.13
2018-03-06T12:35:05.787Z,57.53
2018-03-06T12:37:34.116Z,59.03
2018-03-06T12:40:02.507Z,59.10
2018-03-06T12:42:30.913Z,60.20
2018-03-06T12:44:59.241Z,54.00
2018-03-06T12:47:27.590Z,58.83
2018-03-06T12:49:55.922Z,55.43
2018-03-06T12:52:24.267Z,55.20
2018-03-06T12:54:52.601Z,58.67
2018-03-06T12:57:21.036Z,59.13
2018-03-06T12:59:49.348Z,59.67
2018-03-06T13:02:17.699Z,54.87
2018-03-06T13:04:46.026Z,56.17
2018-03-06T13:07:14.374Z,55.90
2018-03-06T13:09:43.530Z,57.60
2018-03-06T13:12:11.878Z,58.10
2018-03-06T13:14:40.211Z,59.70
2018-03-06T13:17:08.566Z,59.22
2018-03-06T13:19:36.921Z,55.95
2018-03-06T13:22:05.261Z,54.90
2018-03-06T13:24:33.603Z,56.67
2018-03-06T13:27:01.975Z,56.67
2018-03-06T13:29:30.306Z,55.30
2018-03-06T13:31:58.662Z,55.67
2018-03-06T13:34:27.014Z,53.97
2018-03-06T13:36:55.363Z,53.25
2018-03-06T13:39:23.697Z,52.30
2018-03-06T13:41:52.032Z,52.67
2018-03-06T13:44:20.379Z,54.40
2018-03-06T13:46:48.702Z,55.70
2018-03-06T13:49:17.993Z,54.55
2018-03-06T13:51:46.325Z,54.03
2018-03-06T13:54:14.675Z,54.37
2018-03-06T13:56:43.890Z,56.60
2018-03-06T13:59:12.242Z,56.03
2018-03-06T14:01:40.570Z,54.87
2018-03-06T14:04:08.919Z,55.10
2018-03-06T14:06:37.258Z,62.45
2018-03-06T14:09:05.605Z,55.30
2018-03-06T14:11:33.921Z,51.80
2018-03-06T14:14:02.298Z,53.50
2018-03-06T14:16:30.631Z,58.40
2018-03-06T14:18:58.949Z,54.72
2018-03-06T14:21:27.298Z,52.85
2018-03-06T14:23:55.786Z,57.13
2018-03-06T14:26:24.970Z,54.10
2018-03-06T14:28:53.294Z,55.70
2018-03-06T14:31:21.648Z,55.40
2018-03-06T14:33:49.968Z,57.10
2018-03-06T14:36:18.996Z,56.10
2018-03-06T14:38:47.325Z,54.63
2018-03-06T14:41:15.680Z,52.40
2018-03-06T14:43:44.025Z,54.90
2018-03-06T14:46:12.398Z,52.20
2018-03-06T14:48:40.728Z,53.17
2018-03-06T14:51:09.082Z,51.37
2018-03-06T14:53:37.406Z,51.65
2018-03-06T14:56:05.782Z,51.83
2018-03-06T14:58:34.159Z,49.17
2018-03-06T15:01:02.637Z,57.03
2018-03-06T15:03:30.970Z,51.35
2018-03-06T15:05:59.321Z,52.27
2018-03-06T15:08:27.885Z,55.85
2018-03-06T15:10:56.215Z,53.17
2018-03-06T15:13:24.568Z,55.97
2018-03-06T15:15:53.337Z,55.13
2018-03-06T15:18:21.679Z,55.33
2018-03-06T15:20:50.002Z,62.97
2018-03-06T15:23:18.354Z,62.17
2018-03-06T15:25:46.695Z,57.57
2018-03-06T15:28:15.047Z,54.77
2018-03-06T15:30:43.404Z,57.97
2018-03-06T15:33:11.778Z,56.70
2018-03-06T15:35:40.103Z,64.57
2018-03-06T15:38:08.458Z,59.58
2018-03-06T15:40:36.896Z,63.00
2018-03-06T15:43:05.323Z,60.80
2018-03-06T15:45:33.650Z,63.30
2018-03-06T15:48:02.459Z,64.97
2018-03-06T15:50:30.799Z,64.13
2018-03-06T15:52:59.114Z,63.70
2018-03-06T15:55:27.467Z,65.63
2018-03-06T15:57:55.849Z,64.80
2018-03-06T16:00:24.177Z,64.22
2018-03-06T16:02:52.514Z,62.10
2018-03-06T16:05:20.862Z,63.07
2018-03-06T16:07:49.251Z,66.20
2018-03-06T16:10:17.606Z,63.30
2018-03-06T16:12:46.019Z,62.30
2018-03-06T16:15:14.372Z,62.13
2018-03-06T16:17:42.712Z,62.58
2018-03-06T16:20:11.064Z,59.88
2018-03-06T16:22:39.390Z,62.30
2018-03-06T16:25:07.748Z,60.70
2018-03-06T16:27:36.191Z,65.22
2018-03-06T16:30:04.545Z,63.43
2018-03-06T16:32:32.877Z,60.37
2018-03-06T16:35:01.226Z,62.03
2018-03-06T16:37:29.567Z,63.87
2018-03-06T16:39:57.970Z,62.97
2018-03-06T16:42:26.298Z,76.67
2018-03-06T16:44:54.662Z,74.03
2018-03-06T16:47:23.887Z,69.82
2018-03-06T16:49:52.219Z,68.97
2018-03-06T16:52:20.561Z,68.90
2018-03-06T16:54:48.919Z,68.40
2018-03-06T16:57:17.266Z,67.43
2018-03-06T16:59:45.599Z,68.33
2018-03-06T17:02:13.952Z,68.40
2018-03-06T17:04:42.283Z,68.67
2018-03-06T17:07:11.688Z,69.72
2018-03-06T17:09:40.014Z,63.77
2018-03-06T17:12:08.362Z,66.10
2018-03-06T17:14:36.692Z,66.77
2018-03-06T17:17:05.041Z,66.87
2018-03-06T17:19:33.364Z,71.12
2018-03-06T17:22:01.722Z,69.62
2018-03-06T17:24:30.172Z,65.37
2018-03-06T17:26:59.354Z,66.65
2018-03-06T17:29:27.678Z,76.90
2018-03-06T17:31:56.030Z,66.97
2018-03-06T17:34:24.363Z,70.00
2018-03-06T17:36:52.690Z,68.80
2018-03-06T17:39:21.041Z,70.97
2018-03-06T17:41:49.366Z,67.70
2018-03-06T17:44:18.554Z,68.17
2018-03-06T17:46:46.882Z,65.90
2018-03-06T17:49:15.239Z,66.87
2018-03-06T17:51:43.566Z,64.50
2018-03-06T17:54:11.915Z,67.82
2018-03-06T17:56:41.135Z,66.33
2018-03-06T17:59:09.495Z,65.28
2018-03-06T18:01:37.827Z,68.30
2018-03-06T18:04:06.173Z,66.80
2018-03-06T18:06:34.514Z,67.93
2018-03-06T18:09:02.902Z,66.07
2018-03-06T18:11:31.223Z,63.10
2018-03-06T18:13:59.578Z,62.60
2018-03-06T18:16:27.907Z,67.30
2018-03-06T18:18:56.229Z,70.85
2018-03-06T18:21:24.687Z,64.90
2018-03-06T18:23:53.039Z,67.27
2018-03-06T18:26:21.378Z,69.00
2018-03-06T18:28:49.707Z,62.47
2018-03-06T18:31:18.119Z,61.65
2018-03-06T18:33:46.473Z,66.37
2018-03-06T18:36:14.817Z,65.33
2018-03-06T18:38:43.150Z,63.30
2018-03-06T18:41:11.503Z,67.60
2018-03-06T18:43:39.867Z,65.50
2018-03-06T18:46:09.281Z,67.62
2018-03-06T18:48:37.594Z,63.15
2018-03-06T18:51:13.635Z,63.40
2018-03-06T18:53:41.970Z,68.32
2018-03-06T18:56:10.324Z,67.67
2018-03-06T18:58:38.671Z,61.67
2018-03-06T19:04:22.539Z,61.67
2018-03-06T19:07:12.369Z,56.17
2018-03-06T19:09:40.771Z,59.53
2018-03-06T19:12:09.124Z,57.73
2018-03-06T19:14:37.460Z,59.92
2018-03-06T19:17:05.874Z,62.53
2018-03-06T19:19:34.210Z,61.30
2018-03-06T19:22:02.565Z,64.40
2018-03-06T19:24:30.932Z,61.65
2018-03-06T19:26:59.306Z,61.63
2018-03-06T19:29:27.642Z,61.47
2018-03-06T19:31:55.998Z,59.77
2018-03-06T19:34:24.437Z,58.80
2018-03-06T19:36:52.770Z,58.45
2018-03-06T19:39:21.119Z,59.90
2018-03-06T19:41:49.458Z,63.33
2018-03-06T19:44:17.885Z,63.22
2018-03-06T19:46:46.246Z,63.57
2018-03-06T19:49:14.714Z,61.73
2018-03-06T19:51:43.095Z,61.17
2018-03-06T19:54:11.523Z,63.47
2018-03-06T19:56:40.047Z,62.17
2018-03-06T19:59:08.447Z,62.83
2018-03-06T20:01:37.153Z,61.33
2018-03-06T20:04:06.579Z,61.13
2018-03-06T20:06:35.215Z,64.40
2018-03-06T20:09:04.049Z,59.80
2018-03-06T20:11:33.193Z,61.20
2018-03-06T20:14:01.731Z,68.10
2018-03-06T20:16:30.506Z,62.67
2018-03-06T20:19:04.906Z,62.67
2018-03-06T20:21:33.479Z,62.00
2018-03-06T20:24:07.836Z,65.20
2018-03-06T20:26:37.098Z,63.53
2018-03-06T20:29:06.271Z,62.57
2018-03-06T20:31:40.368Z,59.70
2018-03-06T20:34:08.923Z,62.47
2018-03-06T20:36:37.736Z,62.03
2018-03-06T20:41:45.771Z,65.23
2018-03-06T20:44:15.249Z,63.60
2018-03-06T20:46:49.495Z,63.30
2018-03-06T20:49:18.257Z,63.47
2018-03-06T20:51:47.307Z,64.07
2018-03-06T20:54:21.523Z,61.23
2018-03-06T20:56:50.205Z,62.30
2018-03-06T20:59:18.916Z,61.67
2018-03-06T21:01:47.607Z,62.70
2018-03-06T21:04:16.206Z,61.80
2018-03-06T21:06:44.970Z,60.30
2018-03-06T21:09:13.658Z,62.77
2018-03-06T21:11:42.440Z,60.10
2018-03-06T21:14:11.169Z,61.67
2018-03-06T21:16:40.142Z,62.38
2018-03-06T21:19:08.973Z,62.80
2018-03-06T21:21:38.042Z,61.15
2018-03-06T21:24:07.420Z,58.97
2018-03-06T21:26:37.329Z,61.00
2018-03-06T21:29:06.025Z,57.80
2018-03-06T21:31:34.754Z,62.27
2018-03-06T21:34:03.641Z,62.83
2018-03-06T21:36:32.412Z,63.93
2018-03-06T21:39:01.341Z,61.37
2018-03-06T21:41:29.946Z,59.77
2018-03-06T21:43:58.572Z,59.17
2018-03-06T21:46:26.967Z,66.17
2018-03-06T21:48:55.318Z,67.40
2018-03-06T21:51:23.722Z,63.53
2018-03-06T21:53:52.050Z,64.68
2018-03-06T21:56:20.373Z,59.72
2018-03-06T21:58:48.721Z,63.00
2018-03-06T22:01:17.053Z,61.47
2018-03-06T22:03:45.398Z,62.70
2018-03-06T22:06:13.717Z,59.63
2018-03-06T22:08:42.068Z,61.65
2018-03-06T22:11:10.391Z,63.33
2018-03-06T22:13:38.739Z,63.90
2018-03-06T22:16:07.066Z,60.78
2018-03-06T22:18:35.424Z,63.08
2018-03-06T22:21:03.742Z,62.88
2018-03-06T22:23:32.086Z,63.58
2018-03-06T22:26:00.412Z,62.78
2018-03-06T22:28:28.804Z,64.07
2018-03-06T22:30:57.111Z,60.92
2018-03-06T22:33:25.434Z,62.20
2018-03-06T22:35:53.782Z,64.85
2018-03-06T22:38:22.137Z,62.53
2018-03-06T22:40:50.450Z,63.95
2018-03-06T22:43:18.777Z,64.15
2018-03-06T22:45:47.121Z,64.22
2018-03-06T22:48:15.446Z,66.55
2018-03-06T22:50:43.793Z,60.40
2018-03-06T22:53:12.113Z,62.08
2018-03-06T22:55:40.462Z,60.30
2018-03-06T22:58:08.785Z,62.83
2018-03-06T23:00:37.134Z,60.28
2018-03-06T23:03:05.454Z,60.90
2018-03-06T23:05:33.810Z,64.53
2018-03-06T23:08:02.203Z,62.45
2018-03-06T23:10:30.538Z,61.63
2018-03-06T23:12:58.958Z,56.65
2018-03-06T23:15:27.285Z,61.17
2018-03-06T23:17:55.620Z,56.47
2018-03-06T23:20:23.949Z,57.05
2018-03-06T23:22:52.270Z,60.28
2018-03-06T23:25:20.630Z,60.42
2018-03-06T23:27:48.950Z,61.03
2018-03-06T23:30:17.289Z,57.65
2018-03-06T23:32:45.630Z,59.10
2018-03-06T23:35:13.958Z,61.90
2018-03-06T23:37:42.299Z,57.92
2018-03-06T23:40:10.613Z,59.72
2018-03-06T23:42:38.962Z,59.17
2018-03-06T23:45:07.290Z,60.30
2018-03-06T23:47:35.634Z,59.47
2018-03-06T23:50:03.956Z,60.95
2018-03-06T23:52:32.298Z,60.88
2018-03-06T23:55:00.622Z,56.97
2018-03-06T23:57:28.966Z,57.25
2018-03-06T23:59:57.290Z,56.55
